Nearby METAR Reports

KLNK - Lincoln, Nebraska, USA
Distance from station: WNW 8mi, 13km
Updated: Fri, 20-Apr-2018 6:54am CDT
Clear
Clear
 Wind from calm
Wind: Calm
Temperature: 34°F , 1°C
Dew Point: 27°F , -3°C
Humidity: 75%
Barometer: 30.41 inHg , 1029.8 hPa
Clouds: Clear
Visibility: 10 miles , 16 km
2018/04/20 11:54 KLNK 201154Z 00000KT 10SM CLR 01/M03 A3041 RMK AO2 SLP302 T00111028 10039 21006 53004
KAHQ - Wahoo, Nebraska, USA
Distance from station: N 31mi, 49km
Updated: Fri, 20-Apr-2018 7:15am CDT
Clear
Clear
 Wind from SE
Wind: SE 3 mph , 6 km/h
Temperature: 32°F , 0°C
Dew Point: 25°F , -4°C
Humidity: 75%
Barometer: 30.41 inHg , 1029.8 hPa
Clouds: Clear
Visibility: 10 miles , 16 km
2018/04/20 12:15 KAHQ 201215Z AUTO 13003KT 10SM CLR 00/M04 A3041 RMK AO2 T00041038
 
KBIE - Beatrice Municip, Nebraska, USA
Distance from station: S 36mi, 57km
Updated: Fri, 20-Apr-2018 7:15am CDT
Clear
Clear
 Wind from ESE
Wind: ESE 6 mph , 9 km/h
Temperature: 39°F , 4°C
Wind Chill: 35°F , 2°C
Dew Point: 30°F , -1°C
Humidity: 70%
Barometer: 30.39 inHg , 1029.1 hPa
Clouds: Clear
Visibility: 10 miles , 16 km
2018/04/20 12:15 KBIE 201215Z AUTO 12005KT 10SM CLR 04/M01 A3039 RMK AO2 T00361006
KMLE - Omaha/Millard, Nebraska, USA
Distance from station: NE 39mi, 63km
Updated: Fri, 20-Apr-2018 7:15am CDT
Clear
Clear
 Wind from SE
Wind: SE 3 mph , 6 km/h
Temperature: 37°F , 3°C
Dew Point: 28°F , -2°C
Humidity: 70%
Barometer: 30.43 inHg , 1030.5 hPa
Clouds: Clear
Visibility: 10 miles , 16 km
2018/04/20 12:15 KMLE 201215Z AUTO 13003KT 10SM CLR 03/M02 A3043 RMK AO2 T00301024
 
KPMV - Plattsmouth Muni, Nebraska, USA
Distance from station: ENE 39mi, 63km
Updated: Fri, 20-Apr-2018 7:15am CDT
Haze, Clear
Haze, Clear
 Wind from ESE
Wind: ESE 7 mph , 11 km/h
Temperature: 36°F , 2°C
Wind Chill: 30°F , -1°C
Dew Point: 27°F , -3°C
Humidity: 70%
Barometer: 30.43 inHg , 1030.5 hPa
Summary: Haze
Clouds: Clear
Visibility: 3 miles , 5 km
2018/04/20 12:15 KPMV 201215Z AUTO 11006KT 3SM HZ CLR 02/M03 A3043 RMK AO2 T00151026
KAFK - Nebraska City, Nebraska, USA
Distance from station: ESE 43mi, 69km
Updated: Fri, 20-Apr-2018 7:15am CDT
Clear
Clear
 Wind from ESE
Wind: ESE 3 mph , 6 km/h
Temperature: 36°F , 2°C
Dew Point: 28°F , -2°C
Humidity: 75%
Barometer: 30.43 inHg , 1030.5 hPa
Clouds: Clear
Visibility: 10 miles , 16 km
2018/04/20 12:15 KAFK 201215Z AUTO 11003KT 10SM CLR 02/M02 A3043 RMK AO2 T00181020
 
KOFF - Offutt Afb/Belle, Nebraska, USA
Distance from station: ENE 44mi, 70km
Updated: Fri, 20-Apr-2018 6:56am CDT
Clear
Clear
 Wind from E
Wind: E 5 mph , 7 km/h
Temperature: 28°F , -2°C
Wind Chill: 22°F , -6°C
Dew Point: 25°F , -4°C
Humidity: 86%
Barometer: 30.42 inHg , 1030.1 hPa
Clouds: Clear
Visibility: 10 miles , 16 km
2018/04/20 11:56 KOFF 201156Z AUTO 08004KT 10SM CLR M02/M04 A3042 RMK AO2 SLP312 T10201045 10039 21020 53002 $
KFET - Fremont Muni Arp, Nebraska, USA
Distance from station: N 46mi, 74km
Updated: Fri, 20-Apr-2018 7:15am CDT
Clear
Clear
 Wind from ESE
Wind: ESE 6 mph , 9 km/h
Temperature: 37°F , 3°C
Wind Chill: 32°F , 0°C
Dew Point: 28°F , -2°C
Humidity: 70%
Barometer: 30.42 inHg , 1030.1 hPa
Clouds: Clear
Visibility: 10 miles , 16 km
2018/04/20 12:15 KFET 201215Z AUTO 11005KT 10SM CLR 03/M02 A3042 RMK AO2 T00291017
 
KBTA - Blair Muni, Nebraska, USA
Distance from station: NNE 51mi, 82km
Updated: Fri, 20-Apr-2018 7:15am CDT
Clear
Clear
 Wind from calm
Wind: Calm
Temperature: 36°F , 2°C
Dew Point: 28°F , -2°C
Humidity: 75%
Barometer: 30.41 inHg , 1029.8 hPa
Clouds: Clear
Visibility: 10 miles , 16 km
2018/04/20 12:15 KBTA 201215Z AUTO 00000KT 10SM CLR 02/M02 A3041 RMK AO2 T00221025
KJYR - York, Nebraska, USA
Distance from station: W 52mi, 84km
Updated: Fri, 20-Apr-2018 7:15am CDT

 Wind from SSE
Wind: SSE 7 mph , 11 km/h
Temperature: 37°F , 3°C
Wind Chill: 32°F , 0°C
Dew Point: 32°F , 0°C
Humidity: 81%
Barometer: 30.37 inHg , 1028.4 hPa
Visibility: 10 miles , 16 km
2018/04/20 12:15 KJYR 201215Z AUTO 15006KT 10SM 03/00 A3037 RMK AO2
 
KOMA - Omaha/Eppley, Nebraska, USA
Distance from station: NE 53mi, 85km
Updated: Fri, 20-Apr-2018 6:52am CDT
Mostly Cloudy
Mostly Cloudy
 Wind from SE
Wind: SE 7 mph , 11 km/h
Temperature: 36°F , 2°C
Wind Chill: 30°F , -1°C
Dew Point: 27°F , -3°C
Humidity: 70%
Barometer: 30.44 inHg , 1030.8 hPa
Clouds: Mostly Cloudy
Visibility: 10 miles , 16 km
Cloud details: Few Clouds 18000 ft
Mostly Cloudy 25000 ft
2018/04/20 11:52 KOMA 201152Z 13006KT 10SM FEW180 BKN250 02/M03 A3044 RMK AO2 SLP310 T00221028 10061 20017 53003
KOLU - Columbus Muni, Nebraska, USA
Distance from station: NW 58mi, 93km
Updated: Fri, 20-Apr-2018 6:56am CDT
Clear
Clear
 Wind from E
Wind: E 8 mph , 13 km/h
Temperature: 34°F , 1°C
Wind Chill: 27°F , -3°C
Dew Point: 28°F , -2°C
Humidity: 81%
Barometer: 30.39 inHg , 1029.1 hPa
Clouds: Clear
Visibility: 10 miles , 16 km
2018/04/20 11:56 KOLU 201156Z AUTO 09007KT 10SM CLR 01/M02 A3039 RMK AO2 SLP301 T00061022 10017 21006 53005 FZRANO